METAR Data
IDs: Format: Raw Decoded Include TAF

Data at: 0409 UTC 24 Jun 2021

METAR for:KMRT (Marysville/Union Cnt, OH, US)
Text:KMRT 240355Z AUTO 19005KT 10SM CLR 18/10 A3019 RMK AO2 T01820100
Temperature: 18.2°C ( 65°F)
Dewpoint: 10.0°C ( 50°F) [RH = 59%]
Pressure (altimeter):30.19 inches Hg (1022.4 mb)
Winds:from the S (190 degrees) at 6 MPH (5 knots; 2.6 m/s)
Visibility:10 or more sm (16+ km)
Ceiling:at least 12,000 feet AGL
Clouds:sky clear below 12,000 feet AGL
QC Flag:automated observation with no human augmentation